Accueil
METAR-TAF:

METAR-TAF

Aéroports :

Matam, Sénégal

latitude: 15-39N, longitude: 013-15W, altitude: 15 m

Observation

Le bulletin a été fait il y a 43 minutes, à 08:00 UTC
Vent 6 kt de ouest/nord-ouest
Température 32°C
Humidité 41%
Pression 1010 hPa
Visibilité 10 km ou plus
pas de nuages en-dessous de 1500 mètres et pas de cumulonimbus.

METAR: GOSM 290800Z 30006KT CAVOK 32/17 Q1010

Heure: 08:43 (08:43 UTC)


TAF: absent

Observations et prévisions météorologiques de plus de 4000 aéroports (messages METAR et TAF).

Les stations disponibles sont représentées par des disques jaunes et rouges sur la carte.

Passer la souris dessus pour voir le nom de la station.

Cliquer dessus pour voir les observations et prévisions météorologiques.

Pour changer de carte: cliquez sur les boutons verts avec une croix noire pour zoomer, sur le bouton vert avec un tiret pour effectuer un zoom arrière, ou sur les flèches vertes pour les cartes adjacentes.


METAR-TAF: